createdAt,value
2018-11-14T00:03:12.803Z,7.76
2018-11-14T00:08:31.272Z,7.74
2018-11-14T00:13:49.780Z,7.68
2018-11-14T00:19:08.342Z,7.78
2018-11-14T00:24:26.955Z,7.77
2018-11-14T00:29:46.088Z,7.61
2018-11-14T00:35:05.192Z,7.56
2018-11-14T00:40:23.684Z,7.54
2018-11-14T00:45:42.207Z,7.60
2018-11-14T00:51:00.743Z,7.43
2018-11-14T00:56:19.246Z,7.48
2018-11-14T01:01:37.853Z,7.58
2018-11-14T01:06:56.405Z,7.68
2018-11-14T01:12:14.998Z,7.71
2018-11-14T01:17:33.640Z,7.72
2018-11-14T01:22:52.174Z,7.78
2018-11-14T01:28:11.399Z,7.80
2018-11-14T01:33:30.562Z,7.78
2018-11-14T01:38:49.167Z,7.74
2018-11-14T01:44:08.020Z,7.70
2018-11-14T01:49:26.512Z,7.66
2018-11-14T01:54:45.012Z,7.68
2018-11-14T02:00:03.720Z,7.62
2018-11-14T02:05:22.241Z,7.66
2018-11-14T02:10:40.755Z,7.65
2018-11-14T02:15:59.308Z,7.68
2018-11-14T02:21:17.890Z,7.61
2018-11-14T02:26:36.435Z,7.58
2018-11-14T02:31:54.912Z,7.52
2018-11-14T02:37:13.579Z,7.39
2018-11-14T02:42:32.660Z,7.29
2018-11-14T02:47:51.202Z,7.18
2018-11-14T02:53:09.741Z,7.09
2018-11-14T02:58:29.163Z,7.12
2018-11-14T03:03:47.849Z,7.21
2018-11-14T03:09:09.663Z,7.18
2018-11-14T03:14:28.212Z,7.11
2018-11-14T03:19:47.447Z,7.06
2018-11-14T03:25:07.714Z,6.99
2018-11-14T03:30:26.241Z,7.00
2018-11-14T03:35:49.986Z,6.96
2018-11-14T03:41:09.235Z,6.96
2018-11-14T03:46:27.756Z,6.85
2018-11-14T03:51:46.263Z,6.72
2018-11-14T03:57:04.798Z,6.71
2018-11-14T04:02:23.852Z,6.63
2018-11-14T04:07:42.742Z,6.50
2018-11-14T04:13:01.270Z,6.46
2018-11-14T04:18:19.966Z,6.50
2018-11-14T04:23:44.092Z,6.55
2018-11-14T04:29:02.647Z,6.64
2018-11-14T04:34:21.876Z,6.58
2018-11-14T04:39:40.880Z,6.49
2018-11-14T04:44:59.382Z,6.61
2018-11-14T04:50:19.849Z,6.70
2018-11-14T04:55:38.347Z,6.73
2018-11-14T05:00:56.887Z,6.77
2018-11-14T05:06:15.961Z,6.75
2018-11-14T05:11:34.446Z,6.79
2018-11-14T05:16:52.970Z,6.69
2018-11-14T05:22:11.510Z,6.32
2018-11-14T05:27:30.034Z,6.26
2018-11-14T05:32:49.463Z,6.37
2018-11-14T05:38:08.618Z,6.41
2018-11-14T05:43:27.973Z,6.40
2018-11-14T05:48:46.587Z,6.45
2018-11-14T05:54:05.886Z,6.54
2018-11-14T05:59:25.915Z,6.35
2018-11-14T06:04:44.406Z,6.31
2018-11-14T06:10:03.140Z,6.18
2018-11-14T06:15:22.527Z,6.10
2018-11-14T06:20:41.071Z,6.13
2018-11-14T06:26:00.295Z,6.14
2018-11-14T06:31:19.305Z,5.96
2018-11-14T06:36:37.823Z,6.11
2018-11-14T06:41:56.348Z,5.94
2018-11-14T06:47:14.887Z,5.69
2018-11-14T06:52:33.411Z,5.62
2018-11-14T06:57:53.205Z,5.55
2018-11-14T07:03:11.697Z,5.53
2018-11-14T07:08:31.447Z,5.40
2018-11-14T07:13:49.914Z,5.51
2018-11-14T07:19:08.471Z,5.50
2018-11-14T07:24:27.064Z,5.41
2018-11-14T07:29:45.559Z,5.36
2018-11-14T07:35:04.203Z,5.46
2018-11-14T07:40:23.409Z,5.45
2018-11-14T07:45:43.401Z,5.53
2018-11-14T07:51:02.371Z,5.63
2018-11-14T07:56:21.701Z,5.55
2018-11-14T08:01:40.203Z,5.62
2018-11-14T08:06:58.733Z,5.71
2018-11-14T08:12:17.263Z,5.80
2018-11-14T08:17:36.496Z,5.91
2018-11-14T08:22:55.251Z,6.06
2018-11-14T08:28:13.932Z,6.31
2018-11-14T08:33:32.415Z,6.54
2018-11-14T08:38:50.980Z,6.65
2018-11-14T08:44:09.486Z,6.76
2018-11-14T08:49:28.034Z,6.88
2018-11-14T08:54:46.553Z,7.09
2018-11-14T09:00:09.359Z,7.65
2018-11-14T09:05:28.048Z,7.84
2018-11-14T09:10:47.288Z,7.98
2018-11-14T09:16:06.196Z,8.20
2018-11-14T09:21:24.773Z,8.42
2018-11-14T09:26:43.284Z,8.56
2018-11-14T09:32:01.785Z,8.61
2018-11-14T09:37:20.991Z,8.74
2018-11-14T09:42:39.643Z,8.89
2018-11-14T09:47:58.434Z,9.02
2018-11-14T09:53:17.849Z,9.19
2018-11-14T09:58:36.523Z,9.37
2018-11-14T10:03:55.006Z,9.57
2018-11-14T10:09:14.300Z,9.81
2018-11-14T10:14:33.527Z,9.93
2018-11-14T10:19:52.084Z,10.08
2018-11-14T10:25:11.820Z,10.08
2018-11-14T10:30:30.496Z,10.18
2018-11-14T10:35:49.627Z,10.15
2018-11-14T10:41:08.751Z,10.25
2018-11-14T10:46:27.365Z,10.51
2018-11-14T10:51:45.907Z,10.53
2018-11-14T10:57:04.538Z,10.60
2018-11-14T11:02:28.614Z,10.94
2018-11-14T11:07:52.434Z,10.69
2018-11-14T11:13:16.153Z,10.71
2018-11-14T11:18:35.186Z,10.73
2018-11-14T11:23:53.707Z,10.81
2018-11-14T11:29:12.559Z,10.91
2018-11-14T11:34:32.163Z,10.92
2018-11-14T11:39:51.627Z,11.00
2018-11-14T11:45:10.137Z,11.07
2018-11-14T11:50:28.995Z,11.09
2018-11-14T11:55:47.486Z,11.12
2018-11-14T12:01:06.313Z,11.18
2018-11-14T12:06:25.340Z,11.21
2018-11-14T12:11:43.723Z,11.20
2018-11-14T12:17:02.277Z,11.16
2018-11-14T12:22:21.433Z,11.19
2018-11-14T12:27:40.231Z,11.19
2018-11-14T12:32:58.721Z,11.22
2018-11-14T12:38:17.202Z,11.11
2018-11-14T12:43:35.720Z,11.19
2018-11-14T12:48:54.260Z,11.27
2018-11-14T12:54:12.745Z,11.15
2018-11-14T12:59:31.332Z,11.22
2018-11-14T13:04:49.923Z,11.30
2018-11-14T13:10:10.009Z,11.23
2018-11-14T13:15:29.004Z,11.27
2018-11-14T13:20:47.616Z,11.16
2018-11-14T13:26:06.940Z,11.06
2018-11-14T13:31:25.513Z,11.05
2018-11-14T13:36:44.676Z,10.91
2018-11-14T13:42:03.245Z,10.96
2018-11-14T13:47:21.758Z,10.94
2018-11-14T13:52:40.447Z,11.02
2018-11-14T13:57:58.943Z,10.91
2018-11-14T14:03:17.538Z,10.82
2018-11-14T14:08:36.641Z,10.76
2018-11-14T14:14:00.263Z,10.85
2018-11-14T14:19:18.816Z,10.66
2018-11-14T14:24:37.308Z,10.59
2018-11-14T14:29:55.815Z,10.54
2018-11-14T14:35:15.406Z,10.50
2018-11-14T14:40:33.944Z,10.39
2018-11-14T14:45:52.458Z,10.30
2018-11-14T14:51:10.999Z,10.16
2018-11-14T14:56:30.341Z,10.03
2018-11-14T15:01:48.782Z,10.00
2018-11-14T15:07:07.363Z,9.77
2018-11-14T15:12:25.868Z,9.62
2018-11-14T15:17:44.706Z,9.47
2018-11-14T15:23:03.355Z,9.30
2018-11-14T15:28:21.865Z,9.23
2018-11-14T15:33:40.366Z,9.18
2018-11-14T15:38:58.868Z,9.08
2018-11-14T15:44:18.532Z,8.97
2018-11-14T15:49:37.085Z,8.80
2018-11-14T15:54:55.584Z,8.75
2018-11-14T16:00:19.496Z,8.79
2018-11-14T16:05:38.066Z,8.75
2018-11-14T16:10:57.009Z,8.62
2018-11-14T16:16:16.041Z,8.63
2018-11-14T16:21:34.856Z,8.64
2018-11-14T16:26:53.812Z,8.57
2018-11-14T16:32:13.137Z,9.18
2018-11-14T16:37:33.949Z,9.13
2018-11-14T16:42:54.186Z,8.78
2018-11-14T16:48:12.743Z,8.77
2018-11-14T16:53:31.495Z,8.80
2018-11-14T16:58:50.332Z,8.75
2018-11-14T17:04:11.331Z,8.78
2018-11-14T17:09:30.003Z,8.69
2018-11-14T17:14:49.109Z,8.71
2018-11-14T17:20:08.226Z,8.69
2018-11-14T17:25:26.844Z,8.60
2018-11-14T17:30:46.159Z,8.58
2018-11-14T17:36:05.358Z,8.52
2018-11-14T17:41:24.496Z,8.55
2018-11-14T17:46:43.076Z,8.45
2018-11-14T17:52:02.147Z,8.38
2018-11-14T17:57:20.675Z,8.33
2018-11-14T18:02:40.351Z,8.27
2018-11-14T18:07:59.205Z,8.19
2018-11-14T18:13:17.743Z,8.10
2018-11-14T18:18:38.072Z,8.04
2018-11-14T18:23:57.234Z,7.95
2018-11-14T18:29:15.745Z,7.97
2018-11-14T18:34:34.898Z,7.97
2018-11-14T18:39:53.436Z,7.97
2018-11-14T18:45:17.324Z,7.97
2018-11-14T18:50:36.384Z,8.16
2018-11-14T18:55:55.033Z,8.08
2018-11-14T19:01:13.587Z,8.12
2018-11-14T19:06:32.772Z,8.16
2018-11-14T19:11:51.399Z,8.14
2018-11-14T19:17:09.922Z,8.13
2018-11-14T19:22:29.078Z,8.11
2018-11-14T19:27:48.163Z,7.94
2018-11-14T19:33:07.314Z,7.93
2018-11-14T19:38:25.890Z,7.87
2018-11-14T19:43:45.761Z,7.73
2018-11-14T19:49:04.393Z,7.57
2018-11-14T19:54:23.414Z,7.58
2018-11-14T19:59:41.973Z,7.54
2018-11-14T20:05:00.734Z,7.47
2018-11-14T20:10:22.457Z,7.43
2018-11-14T20:15:41.009Z,7.39
2018-11-14T20:21:00.222Z,7.25
2018-11-14T20:26:18.837Z,7.11
2018-11-14T20:31:37.355Z,6.99
2018-11-14T20:36:55.805Z,6.91
2018-11-14T20:42:16.743Z,6.82
2018-11-14T20:47:35.871Z,6.82
2018-11-14T20:52:56.290Z,6.72
2018-11-14T20:58:14.849Z,6.72
2018-11-14T21:03:33.422Z,6.61
2018-11-14T21:08:52.130Z,6.55
2018-11-14T21:14:10.754Z,6.40
2018-11-14T21:19:29.362Z,6.27
2018-11-14T21:24:49.427Z,6.23
2018-11-14T21:30:10.551Z,6.25
2018-11-14T21:35:31.565Z,6.20
2018-11-14T21:40:50.143Z,6.34
2018-11-14T21:46:08.771Z,6.23
2018-11-14T21:51:27.400Z,6.30
2018-11-14T21:56:46.077Z,6.26
2018-11-14T22:02:04.826Z,6.37
2018-11-14T22:07:24.659Z,6.44
2018-11-14T22:12:44.002Z,6.38
2018-11-14T22:18:03.118Z,6.24
2018-11-14T22:23:21.738Z,6.32
2018-11-14T22:28:40.305Z,6.24
2018-11-14T22:33:58.935Z,6.29
2018-11-14T22:39:19.123Z,6.15
2018-11-14T22:44:37.947Z,6.22
2018-11-14T22:49:56.547Z,6.23
2018-11-14T22:55:16.780Z,6.24
2018-11-14T23:00:45.842Z,6.31
2018-11-14T23:06:04.358Z,6.20
2018-11-14T23:11:22.859Z,6.12
2018-11-14T23:16:41.819Z,6.14
2018-11-14T23:22:00.382Z,6.15
2018-11-14T23:27:18.904Z,6.11
2018-11-14T23:32:37.577Z,6.12
2018-11-14T23:38:00.974Z,6.05
2018-11-14T23:43:20.791Z,6.05
2018-11-14T23:48:39.293Z,6.11
2018-11-14T23:53:57.802Z,6.04
2018-11-14T23:59:16.314Z,5.90
